sensor_id;sensor_type;location;lat;lon;timestamp;temperature;humidity
20831;DHT22;10576;53.556;9.868;2024-01-30T00:00:05;4.30;99.90
20831;DHT22;10576;53.556;9.868;2024-01-30T00:02:31;4.20;99.90
20831;DHT22;10576;53.556;9.868;2024-01-30T00:04:57;4.20;99.90
20831;DHT22;10576;53.556;9.868;2024-01-30T00:07:22;4.30;99.90
20831;DHT22;10576;53.556;9.868;2024-01-30T00:09:48;4.20;99.90
20831;DHT22;10576;53.556;9.868;2024-01-30T00:12:13;4.20;99.90
20831;DHT22;10576;53.556;9.868;2024-01-30T00:14:41;4.20;99.90
20831;DHT22;10576;53.556;9.868;2024-01-30T00:17:06;4.20;99.90
20831;DHT22;10576;53.556;9.868;2024-01-30T00:19:32;4.20;99.90
20831;DHT22;10576;53.556;9.868;2024-01-30T00:21:57;4.10;99.90
20831;DHT22;10576;53.556;9.868;2024-01-30T00:24:23;4.10;99.90
20831;DHT22;10576;53.556;9.868;2024-01-30T00:26:48;4.00;99.90
20831;DHT22;10576;53.556;9.868;2024-01-30T00:29:14;4.00;99.90
20831;DHT22;10576;53.556;9.868;2024-01-30T00:31:44;4.00;99.90
20831;DHT22;10576;53.556;9.868;2024-01-30T00:34:10;4.00;99.90
20831;DHT22;10576;53.556;9.868;2024-01-30T00:36:36;4.10;99.90
20831;DHT22;10576;53.556;9.868;2024-01-30T00:39:02;4.00;99.90
20831;DHT22;10576;53.556;9.868;2024-01-30T00:41:31;4.00;99.90
20831;DHT22;10576;53.556;9.868;2024-01-30T00:43:57;4.00;99.90
20831;DHT22;10576;53.556;9.868;2024-01-30T00:46:22;4.00;99.90
20831;DHT22;10576;53.556;9.868;2024-01-30T00:48:48;4.00;99.90
20831;DHT22;10576;53.556;9.868;2024-01-30T00:51:13;3.90;99.90
20831;DHT22;10576;53.556;9.868;2024-01-30T00:53:39;3.30;99.90
20831;DHT22;10576;53.556;9.868;2024-01-30T00:56:04;3.80;99.90
20831;DHT22;10576;53.556;9.868;2024-01-30T00:58:30;3.80;99.90
20831;DHT22;10576;53.556;9.868;2024-01-30T01:00:55;3.80;99.90
20831;DHT22;10576;53.556;9.868;2024-01-30T01:03:21;3.80;99.90
20831;DHT22;10576;53.556;9.868;2024-01-30T01:05:46;3.70;99.90
20831;DHT22;10576;53.556;9.868;2024-01-30T01:08:12;3.80;99.90
20831;DHT22;10576;53.556;9.868;2024-01-30T01:10:37;3.80;99.90
20831;DHT22;10576;53.556;9.868;2024-01-30T01:13:03;3.80;99.90
20831;DHT22;10576;53.556;9.868;2024-01-30T01:15:29;3.70;99.90
20831;DHT22;10576;53.556;9.868;2024-01-30T01:17:54;3.70;99.90
20831;DHT22;10576;53.556;9.868;2024-01-30T01:20:20;3.70;99.90
20831;DHT22;10576;53.556;9.868;2024-01-30T01:22:45;3.60;99.90
20831;DHT22;10576;53.556;9.868;2024-01-30T01:25:11;3.60;99.90
20831;DHT22;10576;53.556;9.868;2024-01-30T01:27:36;3.60;99.90
20831;DHT22;10576;53.556;9.868;2024-01-30T01:30:09;3.50;99.90
20831;DHT22;10576;53.556;9.868;2024-01-30T01:32:35;3.60;99.90
20831;DHT22;10576;53.556;9.868;2024-01-30T01:35:01;3.50;99.90
20831;DHT22;10576;53.556;9.868;2024-01-30T01:37:27;3.30;99.90
20831;DHT22;10576;53.556;9.868;2024-01-30T01:39:52;3.60;99.90
20831;DHT22;10576;53.556;9.868;2024-01-30T01:42:18;3.50;99.90
20831;DHT22;10576;53.556;9.868;2024-01-30T01:44:43;4.00;99.90
20831;DHT22;10576;53.556;9.868;2024-01-30T01:47:09;3.60;99.90
20831;DHT22;10576;53.556;9.868;2024-01-30T01:49:34;3.50;99.90
20831;DHT22;10576;53.556;9.868;2024-01-30T01:52:00;3.40;99.90
20831;DHT22;10576;53.556;9.868;2024-01-30T01:54:26;3.40;99.90
20831;DHT22;10576;53.556;9.868;2024-01-30T01:56:52;3.40;99.90
20831;DHT22;10576;53.556;9.868;2024-01-30T01:59:18;3.40;99.90
20831;DHT22;10576;53.556;9.868;2024-01-30T02:01:43;3.50;99.90
20831;DHT22;10576;53.556;9.868;2024-01-30T02:04:10;3.50;99.90
20831;DHT22;10576;53.556;9.868;2024-01-30T02:06:36;3.40;99.90
20831;DHT22;10576;53.556;9.868;2024-01-30T02:09:03;3.40;99.90
20831;DHT22;10576;53.556;9.868;2024-01-30T02:11:29;3.40;99.90
20831;DHT22;10576;53.556;9.868;2024-01-30T02:13:55;3.40;99.90
20831;DHT22;10576;53.556;9.868;2024-01-30T02:16:21;3.40;99.90
20831;DHT22;10576;53.556;9.868;2024-01-30T02:18:46;3.50;99.90
20831;DHT22;10576;53.556;9.868;2024-01-30T02:21:16;3.60;99.90
20831;DHT22;10576;53.556;9.868;2024-01-30T02:23:46;3.60;99.90
20831;DHT22;10576;53.556;9.868;2024-01-30T02:26:12;3.60;99.90
20831;DHT22;10576;53.556;9.868;2024-01-30T02:28:37;3.60;99.90
20831;DHT22;10576;53.556;9.868;2024-01-30T02:31:03;6.40;99.90
20831;DHT22;10576;53.556;9.868;2024-01-30T02:33:29;3.60;99.90
20831;DHT22;10576;53.556;9.868;2024-01-30T02:35:54;3.60;99.90
20831;DHT22;10576;53.556;9.868;2024-01-30T02:38:20;3.70;99.90
20831;DHT22;10576;53.556;9.868;2024-01-30T02:40:45;3.70;99.90
20831;DHT22;10576;53.556;9.868;2024-01-30T02:43:11;3.70;99.90
20831;DHT22;10576;53.556;9.868;2024-01-30T02:45:37;3.70;99.90
20831;DHT22;10576;53.556;9.868;2024-01-30T02:48:02;3.60;99.90
20831;DHT22;10576;53.556;9.868;2024-01-30T02:50:28;3.70;99.90
20831;DHT22;10576;53.556;9.868;2024-01-30T02:55:56;3.70;99.90
20831;DHT22;10576;53.556;9.868;2024-01-30T02:58:22;3.80;99.90
20831;DHT22;10576;53.556;9.868;2024-01-30T03:00:47;3.80;99.90
20831;DHT22;10576;53.556;9.868;2024-01-30T03:03:13;3.80;99.90
20831;DHT22;10576;53.556;9.868;2024-01-30T03:05:38;3.50;99.90
20831;DHT22;10576;53.556;9.868;2024-01-30T03:08:04;3.40;99.90
20831;DHT22;10576;53.556;9.868;2024-01-30T03:10:29;3.60;99.90
20831;DHT22;10576;53.556;9.868;2024-01-30T03:12:55;3.60;99.90
20831;DHT22;10576;53.556;9.868;2024-01-30T03:15:20;3.50;99.90
20831;DHT22;10576;53.556;9.868;2024-01-30T03:17:46;3.40;99.90
20831;DHT22;10576;53.556;9.868;2024-01-30T03:20:11;3.50;99.90
20831;DHT22;10576;53.556;9.868;2024-01-30T03:22:37;3.40;99.90
20831;DHT22;10576;53.556;9.868;2024-01-30T03:25:02;3.40;99.90
20831;DHT22;10576;53.556;9.868;2024-01-30T03:27:28;3.40;99.90
20831;DHT22;10576;53.556;9.868;2024-01-30T03:29:54;3.70;99.90
20831;DHT22;10576;53.556;9.868;2024-01-30T03:32:19;3.30;99.90
20831;DHT22;10576;53.556;9.868;2024-01-30T03:34:45;3.20;99.90
20831;DHT22;10576;53.556;9.868;2024-01-30T03:37:10;3.20;99.90
20831;DHT22;10576;53.556;9.868;2024-01-30T03:39:36;3.20;99.90
20831;DHT22;10576;53.556;9.868;2024-01-30T03:42:02;3.20;99.90
20831;DHT22;10576;53.556;9.868;2024-01-30T03:44:27;3.20;99.90
20831;DHT22;10576;53.556;9.868;2024-01-30T03:46:52;3.20;99.90
20831;DHT22;10576;53.556;9.868;2024-01-30T03:49:18;3.10;99.90
20831;DHT22;10576;53.556;9.868;2024-01-30T03:51:44;3.10;99.90
20831;DHT22;10576;53.556;9.868;2024-01-30T03:54:09;3.10;99.90
20831;DHT22;10576;53.556;9.868;2024-01-30T03:56:35;3.00;99.90
20831;DHT22;10576;53.556;9.868;2024-01-30T03:59:00;3.00;99.90
20831;DHT22;10576;53.556;9.868;2024-01-30T04:01:28;3.10;99.90
20831;DHT22;10576;53.556;9.868;2024-01-30T04:03:53;3.10;99.90
20831;DHT22;10576;53.556;9.868;2024-01-30T04:06:19;3.10;99.90
20831;DHT22;10576;53.556;9.868;2024-01-30T04:08:44;3.10;99.90
20831;DHT22;10576;53.556;9.868;2024-01-30T04:11:10;3.20;99.90
20831;DHT22;10576;53.556;9.868;2024-01-30T04:13:35;3.60;99.90
20831;DHT22;10576;53.556;9.868;2024-01-30T04:16:01;3.00;99.90
20831;DHT22;10576;53.556;9.868;2024-01-30T04:18:27;3.10;99.90
20831;DHT22;10576;53.556;9.868;2024-01-30T04:20:53;3.10;99.90
20831;DHT22;10576;53.556;9.868;2024-01-30T04:23:19;3.10;99.90
20831;DHT22;10576;53.556;9.868;2024-01-30T04:25:44;3.10;99.90
20831;DHT22;10576;53.556;9.868;2024-01-30T04:28:10;3.60;99.90
20831;DHT22;10576;53.556;9.868;2024-01-30T04:30:38;3.10;99.90
20831;DHT22;10576;53.556;9.868;2024-01-30T04:33:04;3.00;99.90
20831;DHT22;10576;53.556;9.868;2024-01-30T04:35:30;3.40;99.90
20831;DHT22;10576;53.556;9.868;2024-01-30T04:37:55;2.90;99.90
20831;DHT22;10576;53.556;9.868;2024-01-30T04:40:21;2.90;99.90
20831;DHT22;10576;53.556;9.868;2024-01-30T04:42:46;2.80;99.90
20831;DHT22;10576;53.556;9.868;2024-01-30T04:45:12;2.60;99.90
20831;DHT22;10576;53.556;9.868;2024-01-30T04:47:37;2.80;99.90
20831;DHT22;10576;53.556;9.868;2024-01-30T04:50:04;3.40;99.90
20831;DHT22;10576;53.556;9.868;2024-01-30T04:52:30;2.80;99.90
20831;DHT22;10576;53.556;9.868;2024-01-30T04:54:55;2.80;99.90
20831;DHT22;10576;53.556;9.868;2024-01-30T04:57:21;2.90;99.90
20831;DHT22;10576;53.556;9.868;2024-01-30T04:59:46;3.20;99.90
20831;DHT22;10576;53.556;9.868;2024-01-30T05:02:12;2.90;99.90
20831;DHT22;10576;53.556;9.868;2024-01-30T05:04:37;2.90;99.90
20831;DHT22;10576;53.556;9.868;2024-01-30T05:07:03;2.80;99.90
20831;DHT22;10576;53.556;9.868;2024-01-30T05:09:28;2.90;99.90
20831;DHT22;10576;53.556;9.868;2024-01-30T05:11:54;2.90;99.90
20831;DHT22;10576;53.556;9.868;2024-01-30T05:14:20;2.90;99.90
20831;DHT22;10576;53.556;9.868;2024-01-30T05:16:45;2.90;99.90
20831;DHT22;10576;53.556;9.868;2024-01-30T05:19:13;3.00;99.90
20831;DHT22;10576;53.556;9.868;2024-01-30T05:21:39;3.00;99.90
20831;DHT22;10576;53.556;9.868;2024-01-30T05:24:04;3.00;99.90
20831;DHT22;10576;53.556;9.868;2024-01-30T05:26:30;3.00;99.90
20831;DHT22;10576;53.556;9.868;2024-01-30T05:28:56;3.10;99.90
20831;DHT22;10576;53.556;9.868;2024-01-30T05:31:22;3.10;99.90
20831;DHT22;10576;53.556;9.868;2024-01-30T05:33:47;3.10;99.90
20831;DHT22;10576;53.556;9.868;2024-01-30T05:36:13;2.80;99.90
20831;DHT22;10576;53.556;9.868;2024-01-30T05:38:38;3.10;99.90
20831;DHT22;10576;53.556;9.868;2024-01-30T05:41:04;3.10;99.90
20831;DHT22;10576;53.556;9.868;2024-01-30T05:43:30;3.00;99.90
20831;DHT22;10576;53.556;9.868;2024-01-30T05:45:55;3.50;99.90
20831;DHT22;10576;53.556;9.868;2024-01-30T05:48:20;3.00;99.90
20831;DHT22;10576;53.556;9.868;2024-01-30T05:50:46;2.90;99.90
20831;DHT22;10576;53.556;9.868;2024-01-30T05:53:11;2.90;99.90
20831;DHT22;10576;53.556;9.868;2024-01-30T05:55:37;3.30;99.90
20831;DHT22;10576;53.556;9.868;2024-01-30T05:58:03;3.30;99.90
20831;DHT22;10576;53.556;9.868;2024-01-30T06:00:29;2.90;99.90
20831;DHT22;10576;53.556;9.868;2024-01-30T06:02:54;3.00;99.90
20831;DHT22;10576;53.556;9.868;2024-01-30T06:05:20;3.00;99.90
20831;DHT22;10576;53.556;9.868;2024-01-30T06:07:45;3.10;99.90
20831;DHT22;10576;53.556;9.868;2024-01-30T06:10:11;3.40;99.90
20831;DHT22;10576;53.556;9.868;2024-01-30T06:12:37;3.10;99.90
20831;DHT22;10576;53.556;9.868;2024-01-30T06:15:03;3.60;99.90
20831;DHT22;10576;53.556;9.868;2024-01-30T06:17:28;3.20;99.90
20831;DHT22;10576;53.556;9.868;2024-01-30T06:19:54;3.60;99.90
20831;DHT22;10576;53.556;9.868;2024-01-30T06:22:20;3.30;99.90
20831;DHT22;10576;53.556;9.868;2024-01-30T06:24:45;3.30;99.90
20831;DHT22;10576;53.556;9.868;2024-01-30T06:27:13;3.10;99.90
20831;DHT22;10576;53.556;9.868;2024-01-30T06:29:38;3.40;99.90
20831;DHT22;10576;53.556;9.868;2024-01-30T06:32:04;3.40;99.90
20831;DHT22;10576;53.556;9.868;2024-01-30T06:34:30;3.40;99.90
20831;DHT22;10576;53.556;9.868;2024-01-30T06:36:55;4.00;99.90
20831;DHT22;10576;53.556;9.868;2024-01-30T06:39:21;3.60;99.90
20831;DHT22;10576;53.556;9.868;2024-01-30T06:41:46;3.50;99.90
20831;DHT22;10576;53.556;9.868;2024-01-30T06:44:12;1.70;99.90
20831;DHT22;10576;53.556;9.868;2024-01-30T06:46:38;3.50;99.90
20831;DHT22;10576;53.556;9.868;2024-01-30T06:49:03;3.50;99.90
20831;DHT22;10576;53.556;9.868;2024-01-30T06:51:29;3.50;99.90
20831;DHT22;10576;53.556;9.868;2024-01-30T06:53:54;3.60;99.90
20831;DHT22;10576;53.556;9.868;2024-01-30T06:56:20;3.60;99.90
20831;DHT22;10576;53.556;9.868;2024-01-30T06:58:47;3.60;99.90
20831;DHT22;10576;53.556;9.868;2024-01-30T07:01:12;3.60;99.90
20831;DHT22;10576;53.556;9.868;2024-01-30T07:03:38;3.60;99.90
20831;DHT22;10576;53.556;9.868;2024-01-30T07:06:03;3.60;99.90
20831;DHT22;10576;53.556;9.868;2024-01-30T07:08:29;3.60;99.90
20831;DHT22;10576;53.556;9.868;2024-01-30T07:10:54;3.60;99.90
20831;DHT22;10576;53.556;9.868;2024-01-30T07:13:21;3.60;99.90
20831;DHT22;10576;53.556;9.868;2024-01-30T07:15:47;3.60;99.90
20831;DHT22;10576;53.556;9.868;2024-01-30T07:18:12;3.50;99.90
20831;DHT22;10576;53.556;9.868;2024-01-30T07:20:39;3.60;99.90
20831;DHT22;10576;53.556;9.868;2024-01-30T07:23:11;3.50;99.90
20831;DHT22;10576;53.556;9.868;2024-01-30T07:25:42;3.60;99.90
20831;DHT22;10576;53.556;9.868;2024-01-30T07:28:08;3.70;99.90
20831;DHT22;10576;53.556;9.868;2024-01-30T07:30:37;3.60;99.90
20831;DHT22;10576;53.556;9.868;2024-01-30T07:33:04;3.70;99.90
20831;DHT22;10576;53.556;9.868;2024-01-30T07:35:29;3.80;99.90
20831;DHT22;10576;53.556;9.868;2024-01-30T07:37:55;3.80;99.90
20831;DHT22;10576;53.556;9.868;2024-01-30T07:40:22;4.60;99.90
20831;DHT22;10576;53.556;9.868;2024-01-30T07:42:50;3.90;99.90
20831;DHT22;10576;53.556;9.868;2024-01-30T07:45:16;4.00;99.90
20831;DHT22;10576;53.556;9.868;2024-01-30T07:47:41;4.10;99.90
20831;DHT22;10576;53.556;9.868;2024-01-30T07:50:07;4.10;99.90
20831;DHT22;10576;53.556;9.868;2024-01-30T07:52:33;4.20;99.90
20831;DHT22;10576;53.556;9.868;2024-01-30T07:54:58;4.30;99.90
20831;DHT22;10576;53.556;9.868;2024-01-30T07:57:24;4.30;99.90
20831;DHT22;10576;53.556;9.868;2024-01-30T07:59:50;4.30;99.90
20831;DHT22;10576;53.556;9.868;2024-01-30T08:02:15;4.40;99.90
20831;DHT22;10576;53.556;9.868;2024-01-30T08:04:41;4.40;99.90
20831;DHT22;10576;53.556;9.868;2024-01-30T08:07:06;4.40;99.90
20831;DHT22;10576;53.556;9.868;2024-01-30T08:09:32;4.50;99.90
20831;DHT22;10576;53.556;9.868;2024-01-30T08:11:57;4.40;99.90
20831;DHT22;10576;53.556;9.868;2024-01-30T08:14:23;4.40;99.90
20831;DHT22;10576;53.556;9.868;2024-01-30T08:16:49;4.50;99.90
20831;DHT22;10576;53.556;9.868;2024-01-30T08:19:15;4.50;99.90
20831;DHT22;10576;53.556;9.868;2024-01-30T08:21:40;4.60;99.90
20831;DHT22;10576;53.556;9.868;2024-01-30T08:24:06;4.60;99.90
20831;DHT22;10576;53.556;9.868;2024-01-30T08:26:32;4.70;99.90
20831;DHT22;10576;53.556;9.868;2024-01-30T08:28:58;4.70;99.90
20831;DHT22;10576;53.556;9.868;2024-01-30T08:31:23;4.90;99.90
20831;DHT22;10576;53.556;9.868;2024-01-30T08:33:49;4.90;99.90
20831;DHT22;10576;53.556;9.868;2024-01-30T08:36:15;5.00;99.90
20831;DHT22;10576;53.556;9.868;2024-01-30T08:38:40;5.00;99.90
20831;DHT22;10576;53.556;9.868;2024-01-30T08:41:07;5.20;99.90
20831;DHT22;10576;53.556;9.868;2024-01-30T08:43:32;5.20;99.90
20831;DHT22;10576;53.556;9.868;2024-01-30T08:46:01;5.20;99.90
20831;DHT22;10576;53.556;9.868;2024-01-30T08:48:26;5.30;99.90
20831;DHT22;10576;53.556;9.868;2024-01-30T08:50:52;5.40;99.90
20831;DHT22;10576;53.556;9.868;2024-01-30T08:53:17;5.30;99.90
20831;DHT22;10576;53.556;9.868;2024-01-30T08:55:43;5.50;99.90
20831;DHT22;10576;53.556;9.868;2024-01-30T08:58:09;5.60;99.90
20831;DHT22;10576;53.556;9.868;2024-01-30T09:00:34;5.80;99.90
20831;DHT22;10576;53.556;9.868;2024-01-30T09:03:00;5.90;99.90
20831;DHT22;10576;53.556;9.868;2024-01-30T09:05:25;5.90;99.90
20831;DHT22;10576;53.556;9.868;2024-01-30T09:07:51;6.00;99.90
20831;DHT22;10576;53.556;9.868;2024-01-30T09:10:16;6.00;99.90
20831;DHT22;10576;53.556;9.868;2024-01-30T09:12:42;6.10;99.90
20831;DHT22;10576;53.556;9.868;2024-01-30T09:15:07;6.10;99.90
20831;DHT22;10576;53.556;9.868;2024-01-30T09:17:33;6.30;99.90
20831;DHT22;10576;53.556;9.868;2024-01-30T09:19:59;6.30;99.90
20831;DHT22;10576;53.556;9.868;2024-01-30T09:22:24;6.40;99.90
20831;DHT22;10576;53.556;9.868;2024-01-30T09:24:50;6.50;99.90
20831;DHT22;10576;53.556;9.868;2024-01-30T09:27:15;6.70;99.90
20831;DHT22;10576;53.556;9.868;2024-01-30T09:29:41;6.60;99.90
20831;DHT22;10576;53.556;9.868;2024-01-30T09:32:06;6.60;99.90
20831;DHT22;10576;53.556;9.868;2024-01-30T09:34:32;6.60;99.90
20831;DHT22;10576;53.556;9.868;2024-01-30T09:36:58;6.60;99.90
20831;DHT22;10576;53.556;9.868;2024-01-30T09:39:24;6.60;99.90
20831;DHT22;10576;53.556;9.868;2024-01-30T09:41:52;6.60;99.90
20831;DHT22;10576;53.556;9.868;2024-01-30T09:44:20;6.70;99.90
20831;DHT22;10576;53.556;9.868;2024-01-30T09:46:47;6.60;99.90
20831;DHT22;10576;53.556;9.868;2024-01-30T09:49:13;6.90;99.90
20831;DHT22;10576;53.556;9.868;2024-01-30T09:51:39;6.90;99.90
20831;DHT22;10576;53.556;9.868;2024-01-30T09:54:05;6.90;99.90
20831;DHT22;10576;53.556;9.868;2024-01-30T09:56:31;7.00;99.90
20831;DHT22;10576;53.556;9.868;2024-01-30T09:58:57;7.10;99.90
20831;DHT22;10576;53.556;9.868;2024-01-30T10:01:22;7.20;99.90
20831;DHT22;10576;53.556;9.868;2024-01-30T10:03:50;7.20;99.90
20831;DHT22;10576;53.556;9.868;2024-01-30T10:06:17;7.30;99.90
20831;DHT22;10576;53.556;9.868;2024-01-30T10:08:43;7.40;99.90
20831;DHT22;10576;53.556;9.868;2024-01-30T10:11:09;7.60;99.90
20831;DHT22;10576;53.556;9.868;2024-01-30T10:13:35;7.60;99.90
20831;DHT22;10576;53.556;9.868;2024-01-30T10:16:00;7.70;99.90
20831;DHT22;10576;53.556;9.868;2024-01-30T10:18:28;7.70;99.90
20831;DHT22;10576;53.556;9.868;2024-01-30T10:20:54;7.80;99.90
20831;DHT22;10576;53.556;9.868;2024-01-30T10:23:19;7.80;99.90
20831;DHT22;10576;53.556;9.868;2024-01-30T10:25:45;7.90;99.90
20831;DHT22;10576;53.556;9.868;2024-01-30T10:28:11;8.00;99.90
20831;DHT22;10576;53.556;9.868;2024-01-30T10:30:36;8.10;99.90
20831;DHT22;10576;53.556;9.868;2024-01-30T10:33:02;8.10;99.90
20831;DHT22;10576;53.556;9.868;2024-01-30T10:35:27;8.20;99.90
20831;DHT22;10576;53.556;9.868;2024-01-30T10:37:53;8.30;99.90
20831;DHT22;10576;53.556;9.868;2024-01-30T10:40:22;8.30;99.90
20831;DHT22;10576;53.556;9.868;2024-01-30T10:42:51;8.40;99.90
20831;DHT22;10576;53.556;9.868;2024-01-30T10:45:20;8.40;99.90
20831;DHT22;10576;53.556;9.868;2024-01-30T10:47:50;8.50;99.90
20831;DHT22;10576;53.556;9.868;2024-01-30T10:50:18;8.50;99.90
20831;DHT22;10576;53.556;9.868;2024-01-30T10:52:43;8.50;99.90
20831;DHT22;10576;53.556;9.868;2024-01-30T10:55:10;8.60;99.90
20831;DHT22;10576;53.556;9.868;2024-01-30T10:57:36;8.60;99.90
20831;DHT22;10576;53.556;9.868;2024-01-30T11:00:08;8.70;99.90
20831;DHT22;10576;53.556;9.868;2024-01-30T11:02:40;8.80;99.90
20831;DHT22;10576;53.556;9.868;2024-01-30T11:05:06;8.80;99.90
20831;DHT22;10576;53.556;9.868;2024-01-30T11:07:33;8.90;99.90
20831;DHT22;10576;53.556;9.868;2024-01-30T11:12:28;9.00;99.90
20831;DHT22;10576;53.556;9.868;2024-01-30T11:15:03;9.00;99.90
20831;DHT22;10576;53.556;9.868;2024-01-30T11:17:50;9.00;99.90
20831;DHT22;10576;53.556;9.868;2024-01-30T11:20:25;9.10;99.90
20831;DHT22;10576;53.556;9.868;2024-01-30T11:22:51;9.10;99.90
20831;DHT22;10576;53.556;9.868;2024-01-30T11:25:17;9.10;99.90
20831;DHT22;10576;53.556;9.868;2024-01-30T11:27:44;9.20;99.90
20831;DHT22;10576;53.556;9.868;2024-01-30T11:30:10;9.20;99.90
20831;DHT22;10576;53.556;9.868;2024-01-30T11:32:36;9.30;99.90
20831;DHT22;10576;53.556;9.868;2024-01-30T11:35:04;9.30;99.90
20831;DHT22;10576;53.556;9.868;2024-01-30T11:37:31;9.30;99.90
20831;DHT22;10576;53.556;9.868;2024-01-30T11:39:57;9.30;99.90
20831;DHT22;10576;53.556;9.868;2024-01-30T11:42:23;9.30;99.90
20831;DHT22;10576;53.556;9.868;2024-01-30T11:44:52;9.30;99.90
20831;DHT22;10576;53.556;9.868;2024-01-30T11:47:17;9.40;99.90
20831;DHT22;10576;53.556;9.868;2024-01-30T11:49:43;9.40;99.90
20831;DHT22;10576;53.556;9.868;2024-01-30T11:52:09;9.30;99.90
20831;DHT22;10576;53.556;9.868;2024-01-30T11:54:34;9.50;99.90
20831;DHT22;10576;53.556;9.868;2024-01-30T11:57:00;9.50;99.90
20831;DHT22;10576;53.556;9.868;2024-01-30T11:59:25;9.50;99.90
20831;DHT22;10576;53.556;9.868;2024-01-30T12:01:51;9.40;99.90
20831;DHT22;10576;53.556;9.868;2024-01-30T12:04:17;9.40;99.90
20831;DHT22;10576;53.556;9.868;2024-01-30T12:06:42;9.50;99.90
20831;DHT22;10576;53.556;9.868;2024-01-30T12:09:08;9.50;99.90
20831;DHT22;10576;53.556;9.868;2024-01-30T12:11:43;9.50;99.90
20831;DHT22;10576;53.556;9.868;2024-01-30T12:14:08;9.50;99.90
20831;DHT22;10576;53.556;9.868;2024-01-30T12:16:34;9.50;99.90
20831;DHT22;10576;53.556;9.868;2024-01-30T12:19:00;9.50;99.90
20831;DHT22;10576;53.556;9.868;2024-01-30T12:21:26;9.50;99.90
20831;DHT22;10576;53.556;9.868;2024-01-30T12:23:52;9.50;99.90
20831;DHT22;10576;53.556;9.868;2024-01-30T12:26:17;9.50;99.90
20831;DHT22;10576;53.556;9.868;2024-01-30T12:28:49;9.50;99.90
20831;DHT22;10576;53.556;9.868;2024-01-30T12:31:15;9.50;99.90
20831;DHT22;10576;53.556;9.868;2024-01-30T12:33:41;10.00;99.90
20831;DHT22;10576;53.556;9.868;2024-01-30T12:36:06;9.50;99.90
20831;DHT22;10576;53.556;9.868;2024-01-30T12:38:32;9.50;99.90
20831;DHT22;10576;53.556;9.868;2024-01-30T12:40:58;9.60;99.90
20831;DHT22;10576;53.556;9.868;2024-01-30T12:43:23;9.50;99.90
20831;DHT22;10576;53.556;9.868;2024-01-30T12:45:50;9.50;99.90
20831;DHT22;10576;53.556;9.868;2024-01-30T12:48:15;9.60;99.90
20831;DHT22;10576;53.556;9.868;2024-01-30T12:50:41;9.50;99.90
20831;DHT22;10576;53.556;9.868;2024-01-30T12:53:06;9.50;99.90
20831;DHT22;10576;53.556;9.868;2024-01-30T12:55:32;9.50;99.90
20831;DHT22;10576;53.556;9.868;2024-01-30T12:57:58;9.60;99.90
20831;DHT22;10576;53.556;9.868;2024-01-30T13:00:23;9.60;99.90
20831;DHT22;10576;53.556;9.868;2024-01-30T13:02:49;9.60;99.90
20831;DHT22;10576;53.556;9.868;2024-01-30T13:05:14;9.60;99.90
20831;DHT22;10576;53.556;9.868;2024-01-30T13:07:40;9.60;99.90
20831;DHT22;10576;53.556;9.868;2024-01-30T13:10:05;9.60;99.90
20831;DHT22;10576;53.556;9.868;2024-01-30T13:12:31;9.60;99.90
20831;DHT22;10576;53.556;9.868;2024-01-30T13:14:58;9.60;99.90
20831;DHT22;10576;53.556;9.868;2024-01-30T13:17:26;9.60;99.90
20831;DHT22;10576;53.556;9.868;2024-01-30T13:19:51;9.60;99.90
20831;DHT22;10576;53.556;9.868;2024-01-30T13:22:17;9.60;99.90
20831;DHT22;10576;53.556;9.868;2024-01-30T13:24:42;9.50;99.90
20831;DHT22;10576;53.556;9.868;2024-01-30T13:27:08;9.60;99.90
20831;DHT22;10576;53.556;9.868;2024-01-30T13:29:34;9.60;99.90
20831;DHT22;10576;53.556;9.868;2024-01-30T13:31:59;9.50;99.90
20831;DHT22;10576;53.556;9.868;2024-01-30T13:34:25;9.50;99.90
20831;DHT22;10576;53.556;9.868;2024-01-30T13:36:50;9.50;99.90
20831;DHT22;10576;53.556;9.868;2024-01-30T13:39:16;11.20;99.90
20831;DHT22;10576;53.556;9.868;2024-01-30T13:41:41;9.50;99.90
20831;DHT22;10576;53.556;9.868;2024-01-30T13:44:07;9.50;99.90
20831;DHT22;10576;53.556;9.868;2024-01-30T13:46:34;9.50;99.90
20831;DHT22;10576;53.556;9.868;2024-01-30T13:49:00;9.50;99.90
20831;DHT22;10576;53.556;9.868;2024-01-30T13:51:25;9.50;99.90
20831;DHT22;10576;53.556;9.868;2024-01-30T13:53:51;9.50;99.90
20831;DHT22;10576;53.556;9.868;2024-01-30T13:56:16;9.50;99.90
20831;DHT22;10576;53.556;9.868;2024-01-30T13:58:42;9.50;99.90
20831;DHT22;10576;53.556;9.868;2024-01-30T14:01:07;9.40;99.90
20831;DHT22;10576;53.556;9.868;2024-01-30T14:03:35;9.50;99.90
20831;DHT22;10576;53.556;9.868;2024-01-30T14:06:00;9.40;99.90
20831;DHT22;10576;53.556;9.868;2024-01-30T14:08:26;9.50;99.90
20831;DHT22;10576;53.556;9.868;2024-01-30T14:10:54;9.50;99.90
20831;DHT22;10576;53.556;9.868;2024-01-30T14:13:20;9.50;99.90
20831;DHT22;10576;53.556;9.868;2024-01-30T14:15:46;9.50;99.90
20831;DHT22;10576;53.556;9.868;2024-01-30T14:18:11;9.60;99.90
20831;DHT22;10576;53.556;9.868;2024-01-30T14:20:37;9.60;99.90
20831;DHT22;10576;53.556;9.868;2024-01-30T14:23:03;9.60;99.90
20831;DHT22;10576;53.556;9.868;2024-01-30T14:25:28;9.60;99.90
20831;DHT22;10576;53.556;9.868;2024-01-30T14:27:54;9.60;99.90
20831;DHT22;10576;53.556;9.868;2024-01-30T14:30:19;9.60;99.90
20831;DHT22;10576;53.556;9.868;2024-01-30T14:32:45;9.60;99.90
20831;DHT22;10576;53.556;9.868;2024-01-30T14:35:11;9.60;99.90
20831;DHT22;10576;53.556;9.868;2024-01-30T14:37:37;9.60;99.90
20831;DHT22;10576;53.556;9.868;2024-01-30T14:40:03;9.60;99.90
20831;DHT22;10576;53.556;9.868;2024-01-30T14:42:29;9.60;99.90
20831;DHT22;10576;53.556;9.868;2024-01-30T14:44:57;9.60;99.90
20831;DHT22;10576;53.556;9.868;2024-01-30T14:47:22;9.60;99.90
20831;DHT22;10576;53.556;9.868;2024-01-30T14:49:48;9.70;99.90
20831;DHT22;10576;53.556;9.868;2024-01-30T14:52:14;9.70;99.90
20831;DHT22;10576;53.556;9.868;2024-01-30T14:54:40;9.70;99.90
20831;DHT22;10576;53.556;9.868;2024-01-30T14:57:05;9.70;99.90
20831;DHT22;10576;53.556;9.868;2024-01-30T14:59:31;9.70;99.90
20831;DHT22;10576;53.556;9.868;2024-01-30T15:01:57;9.70;99.90
20831;DHT22;10576;53.556;9.868;2024-01-30T15:04:22;9.70;99.90
20831;DHT22;10576;53.556;9.868;2024-01-30T15:06:48;9.70;99.90
20831;DHT22;10576;53.556;9.868;2024-01-30T15:09:14;9.70;99.90
20831;DHT22;10576;53.556;9.868;2024-01-30T15:11:41;9.70;99.90
20831;DHT22;10576;53.556;9.868;2024-01-30T15:14:07;9.70;99.90
20831;DHT22;10576;53.556;9.868;2024-01-30T15:16:32;9.70;99.90
20831;DHT22;10576;53.556;9.868;2024-01-30T15:18:58;9.70;99.90
20831;DHT22;10576;53.556;9.868;2024-01-30T15:21:23;9.70;99.90
20831;DHT22;10576;53.556;9.868;2024-01-30T15:23:49;9.70;99.90
20831;DHT22;10576;53.556;9.868;2024-01-30T15:26:14;9.70;99.90
20831;DHT22;10576;53.556;9.868;2024-01-30T15:28:40;9.70;99.90
20831;DHT22;10576;53.556;9.868;2024-01-30T15:31:06;9.80;99.90
20831;DHT22;10576;53.556;9.868;2024-01-30T15:33:32;9.70;99.90
20831;DHT22;10576;53.556;9.868;2024-01-30T15:35:58;9.80;99.90
20831;DHT22;10576;53.556;9.868;2024-01-30T15:38:24;9.80;99.90
20831;DHT22;10576;53.556;9.868;2024-01-30T15:40:49;9.80;99.90